sensor_id;sensor_type;location;lat;lon;timestamp;pressure;altitude;pressure_sealevel;temperature
73734;BMP280;62039;50.000;9.064;2023-06-22T00:00:21;100334.53;;;24.36
73734;BMP280;62039;50.000;9.064;2023-06-22T00:02:48;100292.34;;;24.33
73734;BMP280;62039;50.000;9.064;2023-06-22T00:05:15;100242.16;;;24.30
73734;BMP280;62039;50.000;9.064;2023-06-22T00:07:42;100185.00;;;24.26
73734;BMP280;62039;50.000;9.064;2023-06-22T00:10:09;100186.31;;;24.23
73734;BMP280;62039;50.000;9.064;2023-06-22T00:12:37;100196.69;;;24.20
73734;BMP280;62039;50.000;9.064;2023-06-22T00:15:05;100215.06;;;24.16
73734;BMP280;62039;50.000;9.064;2023-06-22T00:17:35;100238.28;;;24.16
73734;BMP280;62039;50.000;9.064;2023-06-22T00:20:02;100259.06;;;24.14
73734;BMP280;62039;50.000;9.064;2023-06-22T00:22:29;100276.09;;;24.13
73734;BMP280;62039;50.000;9.064;2023-06-22T00:24:56;100285.19;;;24.12
73734;BMP280;62039;50.000;9.064;2023-06-22T00:27:23;100301.19;;;24.12
73734;BMP280;62039;50.000;9.064;2023-06-22T00:29:50;100307.56;;;24.11
73734;BMP280;62039;50.000;9.064;2023-06-22T00:32:17;100311.03;;;24.11
73734;BMP280;62039;50.000;9.064;2023-06-22T00:34:47;100315.56;;;24.11
73734;BMP280;62039;50.000;9.064;2023-06-22T00:37:14;100323.81;;;24.09
73734;BMP280;62039;50.000;9.064;2023-06-22T00:39:41;100329.41;;;24.08
73734;BMP280;62039;50.000;9.064;2023-06-22T00:42:08;100326.19;;;24.06
73734;BMP280;62039;50.000;9.064;2023-06-22T00:44:35;100336.31;;;24.04
73734;BMP280;62039;50.000;9.064;2023-06-22T00:47:03;100329.34;;;24.03
73734;BMP280;62039;50.000;9.064;2023-06-22T00:49:30;100353.59;;;24.01
73734;BMP280;62039;50.000;9.064;2023-06-22T00:52:00;100370.41;;;24.02
73734;BMP280;62039;50.000;9.064;2023-06-22T00:54:27;100382.38;;;23.99
73734;BMP280;62039;50.000;9.064;2023-06-22T00:56:55;100402.38;;;23.97
73734;BMP280;62039;50.000;9.064;2023-06-22T00:59:22;100425.22;;;23.93
73734;BMP280;62039;50.000;9.064;2023-06-22T01:01:49;100445.97;;;23.85
73734;BMP280;62039;50.000;9.064;2023-06-22T01:04:16;100457.59;;;23.79
73734;BMP280;62039;50.000;9.064;2023-06-22T01:06:47;100457.53;;;23.74
73734;BMP280;62039;50.000;9.064;2023-06-22T01:09:24;100454.78;;;23.69
73734;BMP280;62039;50.000;9.064;2023-06-22T01:11:55;100469.69;;;23.65
73734;BMP280;62039;50.000;9.064;2023-06-22T01:14:27;100496.81;;;23.62
73734;BMP280;62039;50.000;9.064;2023-06-22T01:16:55;100501.00;;;23.58
73734;BMP280;62039;50.000;9.064;2023-06-22T01:19:35;100508.88;;;23.53
73734;BMP280;62039;50.000;9.064;2023-06-22T01:22:03;100536.28;;;23.48
73734;BMP280;62039;50.000;9.064;2023-06-22T01:24:47;100587.66;;;23.44
73734;BMP280;62039;50.000;9.064;2023-06-22T01:27:28;100623.81;;;23.40
73734;BMP280;62039;50.000;9.064;2023-06-22T01:30:02;100640.84;;;23.39
73734;BMP280;62039;50.000;9.064;2023-06-22T01:32:31;100641.91;;;23.38
73734;BMP280;62039;50.000;9.064;2023-06-22T01:34:59;100657.66;;;23.39
73734;BMP280;62039;50.000;9.064;2023-06-22T01:37:27;100665.91;;;23.38
73734;BMP280;62039;50.000;9.064;2023-06-22T01:39:55;100664.81;;;23.39
73734;BMP280;62039;50.000;9.064;2023-06-22T01:42:23;100647.78;;;23.40
73734;BMP280;62039;50.000;9.064;2023-06-22T01:44:52;100580.13;;;23.41
73734;BMP280;62039;50.000;9.064;2023-06-22T01:47:22;100508.16;;;23.41
73734;BMP280;62039;50.000;9.064;2023-06-22T01:49:50;100464.94;;;23.39
73734;BMP280;62039;50.000;9.064;2023-06-22T01:52:17;100417.47;;;23.36
73734;BMP280;62039;50.000;9.064;2023-06-22T01:54:44;100390.47;;;23.32
73734;BMP280;62039;50.000;9.064;2023-06-22T01:57:11;100364.09;;;23.31
73734;BMP280;62039;50.000;9.064;2023-06-22T01:59:45;100325.66;;;23.27
73734;BMP280;62039;50.000;9.064;2023-06-22T02:02:17;100303.22;;;23.23
73734;BMP280;62039;50.000;9.064;2023-06-22T02:04:56;100278.09;;;23.19
73734;BMP280;62039;50.000;9.064;2023-06-22T02:07:28;100265.28;;;23.16
73734;BMP280;62039;50.000;9.064;2023-06-22T02:09:57;100255.09;;;23.13
73734;BMP280;62039;50.000;9.064;2023-06-22T02:12:26;100247.63;;;23.09
73734;BMP280;62039;50.000;9.064;2023-06-22T02:14:54;100239.28;;;23.06
73734;BMP280;62039;50.000;9.064;2023-06-22T02:17:22;100259.22;;;23.03
73734;BMP280;62039;50.000;9.064;2023-06-22T02:19:52;100273.00;;;23.00
73734;BMP280;62039;50.000;9.064;2023-06-22T02:22:19;100303.63;;;22.98
73734;BMP280;62039;50.000;9.064;2023-06-22T02:24:46;100329.44;;;22.97
73734;BMP280;62039;50.000;9.064;2023-06-22T02:27:13;100343.81;;;22.96
73734;BMP280;62039;50.000;9.064;2023-06-22T02:29:40;100334.78;;;22.97
73734;BMP280;62039;50.000;9.064;2023-06-22T02:32:07;100346.47;;;22.96
73734;BMP280;62039;50.000;9.064;2023-06-22T02:34:35;100359.22;;;22.94
73734;BMP280;62039;50.000;9.064;2023-06-22T02:37:04;100353.81;;;22.89
73734;BMP280;62039;50.000;9.064;2023-06-22T02:39:31;100353.38;;;22.81
73734;BMP280;62039;50.000;9.064;2023-06-22T02:41:58;100366.84;;;22.74
73734;BMP280;62039;50.000;9.064;2023-06-22T02:44:25;100358.56;;;22.70
73734;BMP280;62039;50.000;9.064;2023-06-22T02:46:52;100357.97;;;22.68
73734;BMP280;62039;50.000;9.064;2023-06-22T02:49:19;100357.41;;;22.66
73734;BMP280;62039;50.000;9.064;2023-06-22T02:51:47;100347.47;;;22.62
73734;BMP280;62039;50.000;9.064;2023-06-22T02:54:17;100342.53;;;22.54
73734;BMP280;62039;50.000;9.064;2023-06-22T02:56:44;100343.47;;;22.48
73734;BMP280;62039;50.000;9.064;2023-06-22T02:59:11;100351.69;;;22.46
73734;BMP280;62039;50.000;9.064;2023-06-22T03:01:38;100359.88;;;22.45
73734;BMP280;62039;50.000;9.064;2023-06-22T03:04:06;100363.63;;;22.44
73734;BMP280;62039;50.000;9.064;2023-06-22T03:06:33;100362.00;;;22.43
73734;BMP280;62039;50.000;9.064;2023-06-22T03:09:02;100358.31;;;22.44
73734;BMP280;62039;50.000;9.064;2023-06-22T03:11:32;100368.94;;;22.44
73734;BMP280;62039;50.000;9.064;2023-06-22T03:14:00;100376.34;;;22.42
73734;BMP280;62039;50.000;9.064;2023-06-22T03:16:27;100373.69;;;22.42
73734;BMP280;62039;50.000;9.064;2023-06-22T03:18:54;100380.88;;;22.41
73734;BMP280;62039;50.000;9.064;2023-06-22T03:21:22;100374.72;;;22.41
73734;BMP280;62039;50.000;9.064;2023-06-22T03:23:50;100378.66;;;22.38
73734;BMP280;62039;50.000;9.064;2023-06-22T03:26:17;100373.59;;;22.37
73734;BMP280;62039;50.000;9.064;2023-06-22T03:28:47;100378.94;;;22.37
73734;BMP280;62039;50.000;9.064;2023-06-22T03:31:14;100379.38;;;22.33
73734;BMP280;62039;50.000;9.064;2023-06-22T03:33:41;100370.59;;;22.33
73734;BMP280;62039;50.000;9.064;2023-06-22T03:36:08;100365.50;;;22.31
73734;BMP280;62039;50.000;9.064;2023-06-22T03:38:35;100370.00;;;22.31
73734;BMP280;62039;50.000;9.064;2023-06-22T03:41:02;100370.28;;;22.29
73734;BMP280;62039;50.000;9.064;2023-06-22T03:43:29;100370.28;;;22.29
73734;BMP280;62039;50.000;9.064;2023-06-22T03:45:58;100368.66;;;22.28
73734;BMP280;62039;50.000;9.064;2023-06-22T03:48:25;100361.47;;;22.29
73734;BMP280;62039;50.000;9.064;2023-06-22T03:50:52;100364.38;;;22.27
73734;BMP280;62039;50.000;9.064;2023-06-22T03:53:19;100354.78;;;22.26
73734;BMP280;62039;50.000;9.064;2023-06-22T03:55:50;100364.38;;;22.27
73734;BMP280;62039;50.000;9.064;2023-06-22T03:58:18;100361.13;;;22.25
73734;BMP280;62039;50.000;9.064;2023-06-22T04:00:45;100362.16;;;22.24
73734;BMP280;62039;50.000;9.064;2023-06-22T04:03:15;100368.56;;;22.23
73734;BMP280;62039;50.000;9.064;2023-06-22T04:05:43;100361.03;;;22.20
73734;BMP280;62039;50.000;9.064;2023-06-22T04:08:10;100357.56;;;22.20
73734;BMP280;62039;50.000;9.064;2023-06-22T04:10:37;100359.41;;;22.19
73734;BMP280;62039;50.000;9.064;2023-06-22T04:13:04;100372.72;;;22.19
73734;BMP280;62039;50.000;9.064;2023-06-22T04:15:31;100367.41;;;22.19
73734;BMP280;62039;50.000;9.064;2023-06-22T04:17:58;100369.25;;;22.19
73734;BMP280;62039;50.000;9.064;2023-06-22T04:20:27;100354.91;;;22.20
73734;BMP280;62039;50.000;9.064;2023-06-22T04:22:56;100357.56;;;22.20
73734;BMP280;62039;50.000;9.064;2023-06-22T04:25:23;100353.63;;;22.22
73734;BMP280;62039;50.000;9.064;2023-06-22T04:27:50;100357.91;;;22.23
73734;BMP280;62039;50.000;9.064;2023-06-22T04:30:17;100355.81;;;22.25
73734;BMP280;62039;50.000;9.064;2023-06-22T04:32:45;100356.38;;;22.27
73734;BMP280;62039;50.000;9.064;2023-06-22T04:35:12;100356.72;;;22.31
73734;BMP280;62039;50.000;9.064;2023-06-22T04:37:43;100349.31;;;22.33
73734;BMP280;62039;50.000;9.064;2023-06-22T04:40:10;100350.94;;;22.34
73734;BMP280;62039;50.000;9.064;2023-06-22T04:42:39;100348.59;;;22.38
73734;BMP280;62039;50.000;9.064;2023-06-22T04:45:06;100351.81;;;22.40
73734;BMP280;62039;50.000;9.064;2023-06-22T04:47:33;100351.38;;;22.43
73734;BMP280;62039;50.000;9.064;2023-06-22T04:50:00;100350.88;;;22.46
73734;BMP280;62039;50.000;9.064;2023-06-22T04:52:27;100345.09;;;22.49
73734;BMP280;62039;50.000;9.064;2023-06-22T04:54:57;100340.38;;;22.51
73734;BMP280;62039;50.000;9.064;2023-06-22T04:57:24;100332.94;;;22.53
73734;BMP280;62039;50.000;9.064;2023-06-22T04:59:51;100343.13;;;22.56
73734;BMP280;62039;50.000;9.064;2023-06-22T05:02:18;100344.47;;;22.58
73734;BMP280;62039;50.000;9.064;2023-06-22T05:04:45;100351.19;;;22.61
73734;BMP280;62039;50.000;9.064;2023-06-22T05:07:12;100349.09;;;22.63
73734;BMP280;62039;50.000;9.064;2023-06-22T05:09:39;100345.13;;;22.65
73734;BMP280;62039;50.000;9.064;2023-06-22T05:12:09;100350.00;;;22.68
73734;BMP280;62039;50.000;9.064;2023-06-22T05:14:37;100347.09;;;22.70
73734;BMP280;62039;50.000;9.064;2023-06-22T05:17:04;100340.47;;;22.73
73734;BMP280;62039;50.000;9.064;2023-06-22T05:19:31;100344.50;;;22.75
73734;BMP280;62039;50.000;9.064;2023-06-22T05:21:58;100344.00;;;22.78
73734;BMP280;62039;50.000;9.064;2023-06-22T05:24:25;100347.03;;;22.82
73734;BMP280;62039;50.000;9.064;2023-06-22T05:26:52;100337.75;;;22.84
73734;BMP280;62039;50.000;9.064;2023-06-22T05:29:21;100338.06;;;22.88
73734;BMP280;62039;50.000;9.064;2023-06-22T05:31:48;100340.00;;;22.92
73734;BMP280;62039;50.000;9.064;2023-06-22T05:34:15;100334.19;;;22.95
73734;BMP280;62039;50.000;9.064;2023-06-22T05:36:42;100342.25;;;23.00
73734;BMP280;62039;50.000;9.064;2023-06-22T05:39:13;100339.69;;;23.05
73734;BMP280;62039;50.000;9.064;2023-06-22T05:41:40;100337.38;;;23.09
73734;BMP280;62039;50.000;9.064;2023-06-22T05:44:07;100336.41;;;23.15
73734;BMP280;62039;50.000;9.064;2023-06-22T05:46:40;100327.19;;;23.23
73734;BMP280;62039;50.000;9.064;2023-06-22T05:49:08;100324.59;;;23.28
73734;BMP280;62039;50.000;9.064;2023-06-22T05:51:34;100321.75;;;23.34
73734;BMP280;62039;50.000;9.064;2023-06-22T05:54:01;100319.50;;;23.43
73734;BMP280;62039;50.000;9.064;2023-06-22T05:56:29;100320.13;;;23.50
73734;BMP280;62039;50.000;9.064;2023-06-22T05:58:56;100320.53;;;23.59
73734;BMP280;62039;50.000;9.064;2023-06-22T06:01:23;100319.28;;;23.66
73734;BMP280;62039;50.000;9.064;2023-06-22T06:03:53;100315.72;;;23.77
73734;BMP280;62039;50.000;9.064;2023-06-22T06:06:20;100307.28;;;23.85
73734;BMP280;62039;50.000;9.064;2023-06-22T06:08:47;100309.81;;;23.97
73734;BMP280;62039;50.000;9.064;2023-06-22T06:11:14;100313.63;;;24.06
73734;BMP280;62039;50.000;9.064;2023-06-22T06:13:41;100303.13;;;24.16
73734;BMP280;62039;50.000;9.064;2023-06-22T06:16:08;100304.03;;;24.27
73734;BMP280;62039;50.000;9.064;2023-06-22T06:18:35;100297.75;;;24.38
73734;BMP280;62039;50.000;9.064;2023-06-22T06:21:05;100294.91;;;24.50
73734;BMP280;62039;50.000;9.064;2023-06-22T06:23:31;100291.00;;;24.62
73734;BMP280;62039;50.000;9.064;2023-06-22T06:25:58;100298.88;;;24.74
73734;BMP280;62039;50.000;9.064;2023-06-22T06:28:25;100299.25;;;24.88
73734;BMP280;62039;50.000;9.064;2023-06-22T06:30:52;100285.44;;;25.01
73734;BMP280;62039;50.000;9.064;2023-06-22T06:33:19;100281.50;;;25.14
73734;BMP280;62039;50.000;9.064;2023-06-22T06:35:47;100273.88;;;25.27
73734;BMP280;62039;50.000;9.064;2023-06-22T06:38:17;100278.50;;;25.42
73734;BMP280;62039;50.000;9.064;2023-06-22T06:40:44;100271.88;;;25.55
73734;BMP280;62039;50.000;9.064;2023-06-22T06:43:11;100260.44;;;25.69
73734;BMP280;62039;50.000;9.064;2023-06-22T06:46:58;100255.44;;;25.88
73734;BMP280;62039;50.000;9.064;2023-06-22T06:49:25;100254.94;;;26.01
73734;BMP280;62039;50.000;9.064;2023-06-22T06:51:52;100251.47;;;26.11
73734;BMP280;62039;50.000;9.064;2023-06-22T06:54:19;100255.53;;;26.24
73734;BMP280;62039;50.000;9.064;2023-06-22T06:56:46;100252.09;;;26.33
73734;BMP280;62039;50.000;9.064;2023-06-22T06:59:13;100259.03;;;26.44
73734;BMP280;62039;50.000;9.064;2023-06-22T07:01:40;100253.16;;;26.57
73734;BMP280;62039;50.000;9.064;2023-06-22T07:04:09;100254.25;;;26.72
73734;BMP280;62039;50.000;9.064;2023-06-22T07:06:36;100264.41;;;26.85
73734;BMP280;62039;50.000;9.064;2023-06-22T07:09:03;100259.28;;;26.98
73734;BMP280;62039;50.000;9.064;2023-06-22T07:11:30;100268.13;;;27.14
73734;BMP280;62039;50.000;9.064;2023-06-22T07:13:57;100263.81;;;27.28
73734;BMP280;62039;50.000;9.064;2023-06-22T07:16:24;100259.19;;;27.44
73734;BMP280;62039;50.000;9.064;2023-06-22T07:18:51;100259.13;;;27.59
73734;BMP280;62039;50.000;9.064;2023-06-22T07:21:21;100248.09;;;27.76
73734;BMP280;62039;50.000;9.064;2023-06-22T07:23:48;100244.50;;;27.91
73734;BMP280;62039;50.000;9.064;2023-06-22T07:26:15;100243.31;;;28.07
73734;BMP280;62039;50.000;9.064;2023-06-22T07:28:41;100228.22;;;28.21
73734;BMP280;62039;50.000;9.064;2023-06-22T07:31:08;100229.19;;;28.35
73734;BMP280;62039;50.000;9.064;2023-06-22T07:33:35;100224.78;;;28.49
73734;BMP280;62039;50.000;9.064;2023-06-22T07:36:03;100225.72;;;28.64
73734;BMP280;62039;50.000;9.064;2023-06-22T07:38:33;100218.91;;;28.76
73734;BMP280;62039;50.000;9.064;2023-06-22T07:40:59;100222.28;;;28.87
73734;BMP280;62039;50.000;9.064;2023-06-22T07:43:26;100227.25;;;28.99
73734;BMP280;62039;50.000;9.064;2023-06-22T07:45:53;100218.00;;;29.10
73734;BMP280;62039;50.000;9.064;2023-06-22T07:48:21;100209.03;;;29.19
73734;BMP280;62039;50.000;9.064;2023-06-22T07:50:48;100206.50;;;29.28
73734;BMP280;62039;50.000;9.064;2023-06-22T07:53:15;100202.91;;;29.38
73734;BMP280;62039;50.000;9.064;2023-06-22T07:55:44;100192.50;;;29.50
73734;BMP280;62039;50.000;9.064;2023-06-22T07:58:15;100199.97;;;29.58
73734;BMP280;62039;50.000;9.064;2023-06-22T08:00:42;100195.53;;;29.67
73734;BMP280;62039;50.000;9.064;2023-06-22T08:03:09;100195.38;;;29.77
73734;BMP280;62039;50.000;9.064;2023-06-22T08:05:36;100190.44;;;29.84
73734;BMP280;62039;50.000;9.064;2023-06-22T08:08:04;100187.84;;;29.93
73734;BMP280;62039;50.000;9.064;2023-06-22T08:10:30;100187.19;;;30.01
73734;BMP280;62039;50.000;9.064;2023-06-22T08:13:00;100187.09;;;30.11
73734;BMP280;62039;50.000;9.064;2023-06-22T08:15:27;100186.38;;;30.19
73734;BMP280;62039;50.000;9.064;2023-06-22T08:17:55;100194.59;;;30.28
73734;BMP280;62039;50.000;9.064;2023-06-22T08:20:22;100198.22;;;30.37
73734;BMP280;62039;50.000;9.064;2023-06-22T08:22:49;100201.81;;;30.46
73734;BMP280;62039;50.000;9.064;2023-06-22T08:25:16;100198.19;;;30.56
73734;BMP280;62039;50.000;9.064;2023-06-22T08:27:45;100197.69;;;30.67
73734;BMP280;62039;50.000;9.064;2023-06-22T08:30:16;100192.13;;;30.77
73734;BMP280;62039;50.000;9.064;2023-06-22T08:32:43;100198.41;;;30.87
73734;BMP280;62039;50.000;9.064;2023-06-22T08:35:10;100183.66;;;30.98
73734;BMP280;62039;50.000;9.064;2023-06-22T08:37:37;100184.53;;;31.07
73734;BMP280;62039;50.000;9.064;2023-06-22T08:40:06;100182.75;;;31.16
73734;BMP280;62039;50.000;9.064;2023-06-22T08:42:34;100187.44;;;31.24
73734;BMP280;62039;50.000;9.064;2023-06-22T08:45:01;100176.75;;;31.33
73734;BMP280;62039;50.000;9.064;2023-06-22T08:47:30;100170.34;;;31.42
73734;BMP280;62039;50.000;9.064;2023-06-22T08:49:57;100163.94;;;31.52
73734;BMP280;62039;50.000;9.064;2023-06-22T08:52:24;100161.78;;;31.63
73734;BMP280;62039;50.000;9.064;2023-06-22T08:54:51;100160.47;;;31.74
73734;BMP280;62039;50.000;9.064;2023-06-22T08:57:18;100164.53;;;31.85
73734;BMP280;62039;50.000;9.064;2023-06-22T08:59:45;100156.50;;;31.93
73734;BMP280;62039;50.000;9.064;2023-06-22T09:02:12;100151.13;;;32.02
73734;BMP280;62039;50.000;9.064;2023-06-22T09:04:42;100152.28;;;32.10
73734;BMP280;62039;50.000;9.064;2023-06-22T09:07:09;100155.06;;;32.18
73734;BMP280;62039;50.000;9.064;2023-06-22T09:09:36;100158.63;;;32.27
73734;BMP280;62039;50.000;9.064;2023-06-22T09:12:04;100163.47;;;32.39
73734;BMP280;62039;50.000;9.064;2023-06-22T09:14:31;100161.56;;;32.48
73734;BMP280;62039;50.000;9.064;2023-06-22T09:16:59;100163.22;;;32.58
73734;BMP280;62039;50.000;9.064;2023-06-22T09:19:26;100158.34;;;32.68
73734;BMP280;62039;50.000;9.064;2023-06-22T09:21:55;100166.50;;;32.77
73734;BMP280;62039;50.000;9.064;2023-06-22T09:24:22;100163.03;;;32.85
73734;BMP280;62039;50.000;9.064;2023-06-22T09:26:49;100158.91;;;32.96
73734;BMP280;62039;50.000;9.064;2023-06-22T09:29:16;100164.34;;;33.05
73734;BMP280;62039;50.000;9.064;2023-06-22T09:31:43;100151.19;;;33.12
73734;BMP280;62039;50.000;9.064;2023-06-22T09:34:10;100149.91;;;33.18
73734;BMP280;62039;50.000;9.064;2023-06-22T09:36:37;100142.44;;;33.24
73734;BMP280;62039;50.000;9.064;2023-06-22T09:39:07;100142.31;;;33.29
73734;BMP280;62039;50.000;9.064;2023-06-22T09:41:34;100130.81;;;33.32
73734;BMP280;62039;50.000;9.064;2023-06-22T09:44:01;100128.31;;;33.35
73734;BMP280;62039;50.000;9.064;2023-06-22T09:46:28;100124.63;;;33.40
73734;BMP280;62039;50.000;9.064;2023-06-22T09:48:55;100125.25;;;33.45
73734;BMP280;62039;50.000;9.064;2023-06-22T09:51:22;100122.75;;;33.49
73734;BMP280;62039;50.000;9.064;2023-06-22T09:53:49;100118.28;;;33.53
73734;BMP280;62039;50.000;9.064;2023-06-22T09:56:19;100115.41;;;33.58
73734;BMP280;62039;50.000;9.064;2023-06-22T09:58:46;100111.72;;;33.63
73734;BMP280;62039;50.000;9.064;2023-06-22T10:01:13;100106.97;;;33.68
73734;BMP280;62039;50.000;9.064;2023-06-22T10:03:40;100107.28;;;33.75
73734;BMP280;62039;50.000;9.064;2023-06-22T10:06:08;100119.19;;;33.83
73734;BMP280;62039;50.000;9.064;2023-06-22T10:08:35;100111.72;;;33.88
73734;BMP280;62039;50.000;9.064;2023-06-22T10:11:02;100113.97;;;33.95
73734;BMP280;62039;50.000;9.064;2023-06-22T10:13:32;100109.63;;;34.03
73734;BMP280;62039;50.000;9.064;2023-06-22T10:15:59;100105.16;;;34.07
73734;BMP280;62039;50.000;9.064;2023-06-22T10:18:26;100100.81;;;34.14
73734;BMP280;62039;50.000;9.064;2023-06-22T10:20:53;100093.31;;;34.20
73734;BMP280;62039;50.000;9.064;2023-06-22T10:23:20;100092.00;;;34.26
73734;BMP280;62039;50.000;9.064;2023-06-22T10:25:47;100082.09;;;34.30
73734;BMP280;62039;50.000;9.064;2023-06-22T10:28:15;100073.03;;;34.35
73734;BMP280;62039;50.000;9.064;2023-06-22T10:30:44;100073.63;;;34.40
73734;BMP280;62039;50.000;9.064;2023-06-22T10:33:12;100059.28;;;34.40
73734;BMP280;62039;50.000;9.064;2023-06-22T10:35:39;100050.53;;;34.43
73734;BMP280;62039;50.000;9.064;2023-06-22T10:38:06;100043.19;;;34.43
73734;BMP280;62039;50.000;9.064;2023-06-22T10:40:33;100037.09;;;34.46
73734;BMP280;62039;50.000;9.064;2023-06-22T10:43:00;100024.81;;;34.49
73734;BMP280;62039;50.000;9.064;2023-06-22T10:45:27;100014.09;;;34.52
73734;BMP280;62039;50.000;9.064;2023-06-22T10:47:58;100018.50;;;34.57
73734;BMP280;62039;50.000;9.064;2023-06-22T10:50:25;100010.53;;;34.60
73734;BMP280;62039;50.000;9.064;2023-06-22T10:52:53;100000.59;;;34.64
73734;BMP280;62039;50.000;9.064;2023-06-22T10:55:24;100007.63;;;34.65
73734;BMP280;62039;50.000;9.064;2023-06-22T10:57:51;100003.13;;;34.69
73734;BMP280;62039;50.000;9.064;2023-06-22T11:00:18;100006.78;;;34.74
73734;BMP280;62039;50.000;9.064;2023-06-22T11:02:45;99990.31;;;34.79
73734;BMP280;62039;50.000;9.064;2023-06-22T11:05:15;99995.53;;;34.84
73734;BMP280;62039;50.000;9.064;2023-06-22T11:07:43;99997.59;;;34.87
73734;BMP280;62039;50.000;9.064;2023-06-22T11:10:30;99990.72;;;34.89
73734;BMP280;62039;50.000;9.064;2023-06-22T11:12:57;99987.34;;;34.92
73734;BMP280;62039;50.000;9.064;2023-06-22T11:15:24;99988.13;;;34.93
73734;BMP280;62039;50.000;9.064;2023-06-22T11:17:51;99979.66;;;34.94
73734;BMP280;62039;50.000;9.064;2023-06-22T11:20:21;99981.25;;;34.95
73734;BMP280;62039;50.000;9.064;2023-06-22T11:22:48;99971.19;;;34.96
73734;BMP280;62039;50.000;9.064;2023-06-22T11:25:15;99970.06;;;34.97
73734;BMP280;62039;50.000;9.064;2023-06-22T11:27:41;99954.56;;;34.97
73734;BMP280;62039;50.000;9.064;2023-06-22T11:30:09;99946.09;;;34.99
73734;BMP280;62039;50.000;9.064;2023-06-22T11:32:36;99937.53;;;34.97
73734;BMP280;62039;50.000;9.064;2023-06-22T11:35:04;99936.72;;;34.96
73734;BMP280;62039;50.000;9.064;2023-06-22T11:37:33;99936.59;;;34.93
73734;BMP280;62039;50.000;9.064;2023-06-22T11:40:00;99942.69;;;34.90
73734;BMP280;62039;50.000;9.064;2023-06-22T11:42:30;99940.63;;;34.87
73734;BMP280;62039;50.000;9.064;2023-06-22T11:44:57;99939.72;;;34.83
73734;BMP280;62039;50.000;9.064;2023-06-22T11:47:25;99945.81;;;34.80
73734;BMP280;62039;50.000;9.064;2023-06-22T11:49:52;99937.56;;;34.76
73734;BMP280;62039;50.000;9.064;2023-06-22T11:52:19;99942.03;;;34.72
73734;BMP280;62039;50.000;9.064;2023-06-22T11:54:49;99933.91;;;34.72
73734;BMP280;62039;50.000;9.064;2023-06-22T11:57:16;99935.53;;;34.64
73734;BMP280;62039;50.000;9.064;2023-06-22T11:59:43;99936.53;;;34.60
73734;BMP280;62039;50.000;9.064;2023-06-22T12:02:10;99919.69;;;34.54
73734;BMP280;62039;50.000;9.064;2023-06-22T12:04:37;99926.22;;;34.53
73734;BMP280;62039;50.000;9.064;2023-06-22T12:07:04;99919.22;;;34.52
73734;BMP280;62039;50.000;9.064;2023-06-22T12:09:31;99916.50;;;34.52
73734;BMP280;62039;50.000;9.064;2023-06-22T12:12:00;99913.47;;;34.54
73734;BMP280;62039;50.000;9.064;2023-06-22T12:14:28;99917.75;;;34.55
73734;BMP280;62039;50.000;9.064;2023-06-22T12:16:57;99917.09;;;34.58
73734;BMP280;62039;50.000;9.064;2023-06-22T12:19:24;99911.34;;;34.59
73734;BMP280;62039;50.000;9.064;2023-06-22T12:21:51;99906.06;;;34.63
73734;BMP280;62039;50.000;9.064;2023-06-22T12:24:18;99913.19;;;34.67
73734;BMP280;62039;50.000;9.064;2023-06-22T12:26:45;99905.97;;;34.72
73734;BMP280;62039;50.000;9.064;2023-06-22T12:29:14;99907.38;;;34.78
73734;BMP280;62039;50.000;9.064;2023-06-22T12:31:41;99904.00;;;34.81
73734;BMP280;62039;50.000;9.064;2023-06-22T12:34:08;99897.13;;;34.83
73734;BMP280;62039;50.000;9.064;2023-06-22T12:36:35;99886.72;;;34.85
73734;BMP280;62039;50.000;9.064;2023-06-22T12:39:03;99892.94;;;34.86
73734;BMP280;62039;50.000;9.064;2023-06-22T12:41:30;99883.22;;;34.85
73734;BMP280;62039;50.000;9.064;2023-06-22T12:43:57;99878.91;;;34.84
73734;BMP280;62039;50.000;9.064;2023-06-22T12:46:26;99885.03;;;34.81
73734;BMP280;62039;50.000;9.064;2023-06-22T12:48:53;99881.03;;;34.78
73734;BMP280;62039;50.000;9.064;2023-06-22T12:51:21;99877.53;;;34.78
73734;BMP280;62039;50.000;9.064;2023-06-22T12:53:48;99881.41;;;34.77
73734;BMP280;62039;50.000;9.064;2023-06-22T12:56:15;99873.69;;;34.79
73734;BMP280;62039;50.000;9.064;2023-06-22T12:58:42;99873.69;;;34.79
73734;BMP280;62039;50.000;9.064;2023-06-22T13:01:09;99875.63;;;34.78
73734;BMP280;62039;50.000;9.064;2023-06-22T13:03:38;99879.44;;;34.77
73734;BMP280;62039;50.000;9.064;2023-06-22T13:06:06;99880.13;;;34.74
73734;BMP280;62039;50.000;9.064;2023-06-22T13:08:33;99876.63;;;34.74
73734;BMP280;62039;50.000;9.064;2023-06-22T13:11:20;99880.75;;;34.71
73734;BMP280;62039;50.000;9.064;2023-06-22T13:13:47;99865.97;;;34.68
73734;BMP280;62039;50.000;9.064;2023-06-22T13:16:14;99869.34;;;34.65
73734;BMP280;62039;50.000;9.064;2023-06-22T13:18:43;99876.25;;;34.63
73734;BMP280;62039;50.000;9.064;2023-06-22T13:21:10;99864.66;;;34.54
73734;BMP280;62039;50.000;9.064;2023-06-22T13:23:37;99876.16;;;34.51
73734;BMP280;62039;50.000;9.064;2023-06-22T13:26:04;99874.44;;;34.46
73734;BMP280;62039;50.000;9.064;2023-06-22T13:28:31;99878.97;;;34.42
73734;BMP280;62039;50.000;9.064;2023-06-22T13:30:58;99864.16;;;34.40
73734;BMP280;62039;50.000;9.064;2023-06-22T13:33:25;99858.72;;;34.40
73734;BMP280;62039;50.000;9.064;2023-06-22T13:35:55;99859.53;;;34.40
73734;BMP280;62039;50.000;9.064;2023-06-22T13:38:22;99851.06;;;34.42
73734;BMP280;62039;50.000;9.064;2023-06-22T13:40:49;99855.00;;;34.44
73734;BMP280;62039;50.000;9.064;2023-06-22T13:43:16;99866.00;;;34.48
73734;BMP280;62039;50.000;9.064;2023-06-22T13:45:43;99855.94;;;34.48
73734;BMP280;62039;50.000;9.064;2023-06-22T13:48:10;99849.06;;;34.51
73734;BMP280;62039;50.000;9.064;2023-06-22T13:50:37;99835.63;;;34.54
73734;BMP280;62039;50.000;9.064;2023-06-22T13:53:07;99825.69;;;34.58
73734;BMP280;62039;50.000;9.064;2023-06-22T13:55:34;99823.94;;;34.62
73734;BMP280;62039;50.000;9.064;2023-06-22T13:58:01;99818.63;;;34.66
73734;BMP280;62039;50.000;9.064;2023-06-22T14:00:27;99810.94;;;34.68
73734;BMP280;62039;50.000;9.064;2023-06-22T14:02:58;99797.84;;;34.70